sensor_id;sensor_type;location;lat;lon;timestamp;pressure;altitude;pressure_sealevel;temperature;humidity
78562;BME280;68963;52.138;5.446;2023-07-20T00:02:06;101512.25;;;17.04;93.59
78562;BME280;68963;52.138;5.446;2023-07-20T00:04:34;101522.06;;;17.03;92.35
78562;BME280;68963;52.138;5.446;2023-07-20T00:07:01;101522.34;;;16.95;93.01
78562;BME280;68963;52.138;5.446;2023-07-20T00:09:27;101514.19;;;16.90;92.97
78562;BME280;68963;52.138;5.446;2023-07-20T00:11:54;101508.63;;;16.92;92.70
78562;BME280;68963;52.138;5.446;2023-07-20T00:14:21;101504.78;;;16.87;94.00
78562;BME280;68963;52.138;5.446;2023-07-20T00:16:50;101515.41;;;16.87;94.21
78562;BME280;68963;52.138;5.446;2023-07-20T00:19:25;101510.69;;;16.89;93.05
78562;BME280;68963;52.138;5.446;2023-07-20T00:21:53;101509.88;;;16.89;93.96
78562;BME280;68963;52.138;5.446;2023-07-20T00:24:20;101512.75;;;16.87;93.72
78562;BME280;68963;52.138;5.446;2023-07-20T00:26:47;101510.75;;;16.83;93.44
78562;BME280;68963;52.138;5.446;2023-07-20T00:29:13;101518.13;;;16.74;93.14
78562;BME280;68963;52.138;5.446;2023-07-20T00:31:40;101503.81;;;16.69;93.29
78562;BME280;68963;52.138;5.446;2023-07-20T00:34:07;101510.19;;;16.61;92.93
78562;BME280;68963;52.138;5.446;2023-07-20T00:36:33;101508.97;;;16.57;93.46
78562;BME280;68963;52.138;5.446;2023-07-20T00:39:00;101511.44;;;16.52;93.99
78562;BME280;68963;52.138;5.446;2023-07-20T00:41:27;101509.63;;;16.46;93.57
78562;BME280;68963;52.138;5.446;2023-07-20T00:43:56;101503.13;;;16.35;93.66
78562;BME280;68963;52.138;5.446;2023-07-20T00:46:23;101504.94;;;16.34;93.55
78562;BME280;68963;52.138;5.446;2023-07-20T00:48:53;101507.03;;;16.32;93.37
78562;BME280;68963;52.138;5.446;2023-07-20T00:51:21;101511.13;;;16.28;94.05
78562;BME280;68963;52.138;5.446;2023-07-20T00:53:48;101510.72;;;16.25;94.49
78562;BME280;68963;52.138;5.446;2023-07-20T00:56:15;101515.22;;;16.24;95.07
78562;BME280;68963;52.138;5.446;2023-07-20T00:58:42;101505.59;;;16.23;95.60
78562;BME280;68963;52.138;5.446;2023-07-20T01:01:09;101519.94;;;16.22;95.32
78562;BME280;68963;52.138;5.446;2023-07-20T01:03:36;101509.13;;;16.17;95.49
78562;BME280;68963;52.138;5.446;2023-07-20T01:11:30;101517.09;;;16.10;95.65
78562;BME280;68963;52.138;5.446;2023-07-20T01:13:58;101519.34;;;16.07;96.24
78562;BME280;68963;52.138;5.446;2023-07-20T01:16:27;101516.06;;;16.05;95.90
78562;BME280;68963;52.138;5.446;2023-07-20T01:18:53;101512.00;;;16.02;95.83
78562;BME280;68963;52.138;5.446;2023-07-20T01:21:26;101513.03;;;15.94;95.84
78562;BME280;68963;52.138;5.446;2023-07-20T01:31:55;101514.25;;;15.72;95.97
78562;BME280;68963;52.138;5.446;2023-07-20T01:34:24;101521.22;;;15.66;96.01
78562;BME280;68963;52.138;5.446;2023-07-20T01:36:53;101513.84;;;15.62;96.33
78562;BME280;68963;52.138;5.446;2023-07-20T01:39:21;101512.00;;;15.56;96.22
78562;BME280;68963;52.138;5.446;2023-07-20T01:41:48;101510.78;;;15.52;96.41
78562;BME280;68963;52.138;5.446;2023-07-20T01:44:15;101515.66;;;15.48;96.91
78562;BME280;68963;52.138;5.446;2023-07-20T01:46:42;101511.97;;;15.42;97.10
78562;BME280;68963;52.138;5.446;2023-07-20T01:49:08;101511.38;;;15.40;97.13
78562;BME280;68963;52.138;5.446;2023-07-20T01:51:35;101510.97;;;15.37;97.14
78562;BME280;68963;52.138;5.446;2023-07-20T01:54:02;101512.41;;;15.33;97.22
78562;BME280;68963;52.138;5.446;2023-07-20T01:56:29;101517.47;;;15.28;97.18
78562;BME280;68963;52.138;5.446;2023-07-20T01:58:55;101520.75;;;15.23;97.33
78562;BME280;68963;52.138;5.446;2023-07-20T02:01:22;101524.00;;;15.18;97.28
78562;BME280;68963;52.138;5.446;2023-07-20T02:03:49;101528.69;;;15.16;97.87
78562;BME280;68963;52.138;5.446;2023-07-20T02:06:16;101530.09;;;15.12;97.65
78562;BME280;68963;52.138;5.446;2023-07-20T02:08:42;101530.31;;;15.11;97.77
78562;BME280;68963;52.138;5.446;2023-07-20T02:11:09;101527.28;;;15.14;98.32
78562;BME280;68963;52.138;5.446;2023-07-20T02:13:36;101522.38;;;15.17;98.50
78562;BME280;68963;52.138;5.446;2023-07-20T02:16:09;101521.78;;;15.22;98.92
78562;BME280;68963;52.138;5.446;2023-07-20T02:18:37;101519.31;;;15.27;98.93
78562;BME280;68963;52.138;5.446;2023-07-20T02:21:04;101518.09;;;15.30;99.04
78562;BME280;68963;52.138;5.446;2023-07-20T02:23:31;101526.06;;;15.30;99.32
78562;BME280;68963;52.138;5.446;2023-07-20T02:25:58;101516.06;;;15.32;99.41
78562;BME280;68963;52.138;5.446;2023-07-20T02:28:25;101524.22;;;15.30;99.24
78562;BME280;68963;52.138;5.446;2023-07-20T02:30:51;101525.66;;;15.26;99.30
78562;BME280;68963;52.138;5.446;2023-07-20T02:33:18;101517.66;;;15.19;99.59
78562;BME280;68963;52.138;5.446;2023-07-20T02:35:44;101524.00;;;15.18;99.65
78562;BME280;68963;52.138;5.446;2023-07-20T02:38:11;101531.56;;;15.15;99.55
78562;BME280;68963;52.138;5.446;2023-07-20T02:40:38;101526.84;;;15.10;99.82
78562;BME280;68963;52.138;5.446;2023-07-20T02:43:04;101518.25;;;15.08;99.66
78562;BME280;68963;52.138;5.446;2023-07-20T02:45:31;101520.91;;;15.02;99.94
78562;BME280;68963;52.138;5.446;2023-07-20T02:47:57;101518.66;;;14.98;99.62
78562;BME280;68963;52.138;5.446;2023-07-20T02:50:24;101518.03;;;14.96;99.33
78562;BME280;68963;52.138;5.446;2023-07-20T02:52:51;101521.47;;;14.90;99.21
78562;BME280;68963;52.138;5.446;2023-07-20T02:55:17;101527.38;;;14.86;99.26
78562;BME280;68963;52.138;5.446;2023-07-20T02:57:44;101530.63;;;14.81;99.21
78562;BME280;68963;52.138;5.446;2023-07-20T03:00:11;101531.66;;;14.80;99.22
78562;BME280;68963;52.138;5.446;2023-07-20T03:02:38;101528.78;;;14.75;99.25
78562;BME280;68963;52.138;5.446;2023-07-20T03:05:05;101538.34;;;14.69;99.36
78562;BME280;68963;52.138;5.446;2023-07-20T03:07:33;101538.75;;;14.66;99.86
78562;BME280;68963;52.138;5.446;2023-07-20T03:10:00;101550.16;;;14.67;99.78
78562;BME280;68963;52.138;5.446;2023-07-20T03:12:27;101546.47;;;14.68;100.00
78562;BME280;68963;52.138;5.446;2023-07-20T03:14:54;101547.13;;;14.70;100.00
78562;BME280;68963;52.138;5.446;2023-07-20T03:17:20;101554.47;;;14.74;100.00
78562;BME280;68963;52.138;5.446;2023-07-20T03:19:47;101557.13;;;14.74;100.00
78562;BME280;68963;52.138;5.446;2023-07-20T03:22:14;101558.16;;;14.73;100.00
78562;BME280;68963;52.138;5.446;2023-07-20T03:24:40;101563.03;;;14.70;100.00
78562;BME280;68963;52.138;5.446;2023-07-20T03:27:07;101562.22;;;14.69;100.00
78562;BME280;68963;52.138;5.446;2023-07-20T03:29:34;101565.88;;;14.68;100.00
78562;BME280;68963;52.138;5.446;2023-07-20T03:32:01;101563.41;;;14.67;100.00
78562;BME280;68963;52.138;5.446;2023-07-20T03:34:27;101562.59;;;14.66;100.00
78562;BME280;68963;52.138;5.446;2023-07-20T03:36:54;101558.13;;;14.67;100.00
78562;BME280;68963;52.138;5.446;2023-07-20T03:39:22;101551.19;;;14.66;100.00
78562;BME280;68963;52.138;5.446;2023-07-20T03:41:49;101549.94;;;14.62;100.00
78562;BME280;68963;52.138;5.446;2023-07-20T03:44:15;101558.47;;;14.57;100.00
78562;BME280;68963;52.138;5.446;2023-07-20T03:46:43;101565.19;;;14.53;100.00
78562;BME280;68963;52.138;5.446;2023-07-20T03:49:10;101557.44;;;14.52;100.00
78562;BME280;68963;52.138;5.446;2023-07-20T03:51:37;101558.25;;;14.52;100.00
78562;BME280;68963;52.138;5.446;2023-07-20T03:54:04;101567.66;;;14.55;100.00
78562;BME280;68963;52.138;5.446;2023-07-20T03:57:11;101562.53;;;14.53;100.00
78562;BME280;68963;52.138;5.446;2023-07-20T03:59:38;101566.81;;;14.54;100.00
78562;BME280;68963;52.138;5.446;2023-07-20T04:02:05;101563.72;;;14.50;100.00
78562;BME280;68963;52.138;5.446;2023-07-20T04:04:32;101563.56;;;14.52;100.00
78562;BME280;68963;52.138;5.446;2023-07-20T04:06:59;101574.50;;;14.49;100.00
78562;BME280;68963;52.138;5.446;2023-07-20T04:09:26;101566.13;;;14.45;99.80
78562;BME280;68963;52.138;5.446;2023-07-20T04:11:53;101574.72;;;14.47;100.00
78562;BME280;68963;52.138;5.446;2023-07-20T04:14:19;101574.75;;;14.54;100.00
78562;BME280;68963;52.138;5.446;2023-07-20T04:16:47;101581.97;;;14.67;100.00
78562;BME280;68963;52.138;5.446;2023-07-20T04:19:14;101578.97;;;14.77;100.00
78562;BME280;68963;52.138;5.446;2023-07-20T04:21:41;101581.88;;;14.88;100.00
78562;BME280;68963;52.138;5.446;2023-07-20T04:24:08;101576.00;;;15.00;100.00
78562;BME280;68963;52.138;5.446;2023-07-20T04:26:35;101585.81;;;15.06;100.00
78562;BME280;68963;52.138;5.446;2023-07-20T04:29:02;101588.06;;;15.09;100.00
78562;BME280;68963;52.138;5.446;2023-07-20T04:31:30;101589.91;;;15.08;100.00
78562;BME280;68963;52.138;5.446;2023-07-20T04:33:59;101590.13;;;15.07;100.00
78562;BME280;68963;52.138;5.446;2023-07-20T04:36:26;101574.78;;;15.02;100.00
78562;BME280;68963;52.138;5.446;2023-07-20T04:38:53;101579.88;;;14.97;100.00
78562;BME280;68963;52.138;5.446;2023-07-20T04:41:20;101585.78;;;14.92;100.00
78562;BME280;68963;52.138;5.446;2023-07-20T04:43:47;101591.69;;;14.88;100.00
78562;BME280;68963;52.138;5.446;2023-07-20T04:46:14;101598.56;;;14.82;100.00
78562;BME280;68963;52.138;5.446;2023-07-20T04:48:41;101605.28;;;14.78;100.00
78562;BME280;68963;52.138;5.446;2023-07-20T04:51:08;101602.00;;;14.76;100.00
78562;BME280;68963;52.138;5.446;2023-07-20T04:53:35;101603.84;;;14.76;100.00
78562;BME280;68963;52.138;5.446;2023-07-20T04:56:01;101600.38;;;14.75;100.00
78562;BME280;68963;52.138;5.446;2023-07-20T04:58:28;101600.59;;;14.73;100.00
78562;BME280;68963;52.138;5.446;2023-07-20T05:00:55;101602.59;;;14.71;100.00
78562;BME280;68963;52.138;5.446;2023-07-20T05:03:21;101598.31;;;14.70;100.00
78562;BME280;68963;52.138;5.446;2023-07-20T05:05:48;101596.47;;;14.71;100.00
78562;BME280;68963;52.138;5.446;2023-07-20T05:08:16;101597.28;;;14.71;100.00
78562;BME280;68963;52.138;5.446;2023-07-20T05:10:43;101599.13;;;14.71;100.00
78562;BME280;68963;52.138;5.446;2023-07-20T05:13:09;101601.56;;;14.72;100.00
78562;BME280;68963;52.138;5.446;2023-07-20T05:15:36;101604.06;;;14.74;100.00
78562;BME280;68963;52.138;5.446;2023-07-20T05:18:03;101607.31;;;14.76;100.00
78562;BME280;68963;52.138;5.446;2023-07-20T05:20:30;101607.94;;;14.78;100.00
78562;BME280;68963;52.138;5.446;2023-07-20T05:22:58;101598.78;;;14.81;100.00
78562;BME280;68963;52.138;5.446;2023-07-20T05:25:28;101598.38;;;14.84;100.00
78562;BME280;68963;52.138;5.446;2023-07-20T05:27:57;101599.00;;;14.86;99.89
78562;BME280;68963;52.138;5.446;2023-07-20T05:30:24;101602.25;;;14.81;100.00
78562;BME280;68963;52.138;5.446;2023-07-20T05:32:55;101601.63;;;14.79;99.96
78562;BME280;68963;52.138;5.446;2023-07-20T05:35:23;101608.16;;;14.83;100.00
78562;BME280;68963;52.138;5.446;2023-07-20T05:37:52;101608.41;;;14.88;100.00
78562;BME280;68963;52.138;5.446;2023-07-20T05:40:19;101600.66;;;14.93;100.00
78562;BME280;68963;52.138;5.446;2023-07-20T05:42:48;101606.00;;;15.00;100.00
78562;BME280;68963;52.138;5.446;2023-07-20T05:45:18;101612.97;;;15.08;100.00
78562;BME280;68963;52.138;5.446;2023-07-20T05:47:46;101604.41;;;15.12;100.00
78562;BME280;68963;52.138;5.446;2023-07-20T05:50:13;101607.31;;;15.17;100.00
78562;BME280;68963;52.138;5.446;2023-07-20T05:52:40;101605.28;;;15.26;100.00
78562;BME280;68963;52.138;5.446;2023-07-20T05:55:07;101599.19;;;15.32;99.38
78562;BME280;68963;52.138;5.446;2023-07-20T05:57:34;101602.66;;;15.39;99.25
78562;BME280;68963;52.138;5.446;2023-07-20T06:00:02;101606.75;;;15.49;98.86
78562;BME280;68963;52.138;5.446;2023-07-20T06:02:29;101601.66;;;15.60;99.02
78562;BME280;68963;52.138;5.446;2023-07-20T06:04:56;101602.31;;;15.76;98.38
78562;BME280;68963;52.138;5.446;2023-07-20T06:07:23;101602.97;;;15.91;97.78
78562;BME280;68963;52.138;5.446;2023-07-20T06:09:50;101606.22;;;16.00;97.05
78562;BME280;68963;52.138;5.446;2023-07-20T06:12:17;101607.25;;;16.12;96.31
78562;BME280;68963;52.138;5.446;2023-07-20T06:14:43;101614.81;;;16.15;95.15
78562;BME280;68963;52.138;5.446;2023-07-20T06:17:10;101616.66;;;16.21;94.79
78562;BME280;68963;52.138;5.446;2023-07-20T06:19:37;101620.94;;;16.29;94.00
78562;BME280;68963;52.138;5.446;2023-07-20T06:22:04;101625.22;;;16.36;94.97
78562;BME280;68963;52.138;5.446;2023-07-20T06:24:31;101619.09;;;16.42;93.66
78562;BME280;68963;52.138;5.446;2023-07-20T06:26:57;101621.53;;;16.51;93.55
78562;BME280;68963;52.138;5.446;2023-07-20T06:29:24;101627.19;;;16.67;91.73
78562;BME280;68963;52.138;5.446;2023-07-20T06:31:51;101624.94;;;16.84;92.13
78562;BME280;68963;52.138;5.446;2023-07-20T06:34:17;101620.25;;;16.80;91.09
78562;BME280;68963;52.138;5.446;2023-07-20T06:36:46;101629.03;;;16.87;90.18
78562;BME280;68963;52.138;5.446;2023-07-20T06:39:13;101626.31;;;16.94;88.54
78562;BME280;68963;52.138;5.446;2023-07-20T06:41:43;101628.97;;;16.94;86.81
78562;BME280;68963;52.138;5.446;2023-07-20T06:44:10;101629.19;;;16.92;87.37
78562;BME280;68963;52.138;5.446;2023-07-20T06:46:37;101639.81;;;17.05;87.06
78562;BME280;68963;52.138;5.446;2023-07-20T06:49:06;101630.53;;;17.21;86.70
78562;BME280;68963;52.138;5.446;2023-07-20T06:51:37;101635.78;;;17.34;84.24
78562;BME280;68963;52.138;5.446;2023-07-20T06:54:03;101634.28;;;17.45;85.10
78562;BME280;68963;52.138;5.446;2023-07-20T06:56:31;101638.88;;;17.63;84.08
78562;BME280;68963;52.138;5.446;2023-07-20T06:58:59;101635.31;;;17.82;83.31
78562;BME280;68963;52.138;5.446;2023-07-20T07:01:25;101635.38;;;18.01;82.97
78562;BME280;68963;52.138;5.446;2023-07-20T07:03:52;101642.81;;;17.92;81.59
78562;BME280;68963;52.138;5.446;2023-07-20T07:06:21;101643.44;;;17.94;81.75
78562;BME280;68963;52.138;5.446;2023-07-20T07:08:50;101641.34;;;17.96;80.96
78562;BME280;68963;52.138;5.446;2023-07-20T07:11:17;101642.91;;;18.04;82.05
78562;BME280;68963;52.138;5.446;2023-07-20T07:13:43;101645.97;;;17.82;78.90
78562;BME280;68963;52.138;5.446;2023-07-20T07:16:13;101643.81;;;17.59;77.93
78562;BME280;68963;52.138;5.446;2023-07-20T07:18:46;101641.13;;;17.66;78.45
78562;BME280;68963;52.138;5.446;2023-07-20T07:21:13;101636.94;;;17.83;78.29
78562;BME280;68963;52.138;5.446;2023-07-20T07:23:39;101638.47;;;17.98;77.47
78562;BME280;68963;52.138;5.446;2023-07-20T07:26:06;101641.19;;;17.91;75.65
78562;BME280;68963;52.138;5.446;2023-07-20T07:28:33;101646.53;;;17.91;75.89
78562;BME280;68963;52.138;5.446;2023-07-20T07:30:59;101637.34;;;18.12;76.13
78562;BME280;68963;52.138;5.446;2023-07-20T07:33:27;101637.22;;;18.25;73.46
78562;BME280;68963;52.138;5.446;2023-07-20T07:35:53;101643.75;;;18.48;76.11
78562;BME280;68963;52.138;5.446;2023-07-20T07:38:23;101648.31;;;18.66;74.99
78562;BME280;68963;52.138;5.446;2023-07-20T07:41:05;101635.28;;;18.94;73.28
78562;BME280;68963;52.138;5.446;2023-07-20T07:43:34;101642.94;;;18.91;73.69
78562;BME280;68963;52.138;5.446;2023-07-20T07:46:01;101650.41;;;19.19;75.54
78562;BME280;68963;52.138;5.446;2023-07-20T07:48:28;101648.34;;;19.33;72.14
78562;BME280;68963;52.138;5.446;2023-07-20T07:50:55;101653.84;;;19.38;72.43
78562;BME280;68963;52.138;5.446;2023-07-20T07:53:21;101649.31;;;19.38;71.95
78562;BME280;68963;52.138;5.446;2023-07-20T07:55:48;101649.72;;;19.23;71.78
78562;BME280;68963;52.138;5.446;2023-07-20T07:58:18;101658.72;;;18.92;70.50
78562;BME280;68963;52.138;5.446;2023-07-20T08:01:01;101651.56;;;18.49;67.25
78562;BME280;68963;52.138;5.446;2023-07-20T08:03:28;101653.72;;;18.16;71.25
78562;BME280;68963;52.138;5.446;2023-07-20T08:05:55;101660.88;;;17.90;70.36
78562;BME280;68963;52.138;5.446;2023-07-20T08:08:22;101663.44;;;17.72;71.55
78562;BME280;68963;52.138;5.446;2023-07-20T08:10:53;101656.75;;;17.56;72.18
78562;BME280;68963;52.138;5.446;2023-07-20T08:13:20;101652.97;;;17.38;72.83
78562;BME280;68963;52.138;5.446;2023-07-20T08:15:49;101652.78;;;17.33;73.06
78562;BME280;68963;52.138;5.446;2023-07-20T08:18:17;101649.16;;;17.59;74.29
78562;BME280;68963;52.138;5.446;2023-07-20T08:20:45;101648.19;;;17.85;71.72
78562;BME280;68963;52.138;5.446;2023-07-20T08:23:13;101650.66;;;17.87;72.28
78562;BME280;68963;52.138;5.446;2023-07-20T08:25:41;101651.75;;;18.04;71.31
78562;BME280;68963;52.138;5.446;2023-07-20T08:28:19;101652.53;;;18.12;66.02
78562;BME280;68963;52.138;5.446;2023-07-20T08:30:47;101650.06;;;18.10;63.32
78562;BME280;68963;52.138;5.446;2023-07-20T08:33:17;101650.81;;;18.17;64.09
78562;BME280;68963;52.138;5.446;2023-07-20T08:35:47;101645.16;;;18.32;65.14
78562;BME280;68963;52.138;5.446;2023-07-20T08:38:14;101648.53;;;18.46;65.71
78562;BME280;68963;52.138;5.446;2023-07-20T08:40:45;101646.75;;;18.58;61.79
78562;BME280;68963;52.138;5.446;2023-07-20T08:43:13;101655.72;;;18.64;61.99
78562;BME280;68963;52.138;5.446;2023-07-20T08:45:40;101655.72;;;18.64;59.73
78562;BME280;68963;52.138;5.446;2023-07-20T08:48:08;101650.41;;;18.64;61.97
78562;BME280;68963;52.138;5.446;2023-07-20T08:50:43;101650.41;;;18.64;59.15
78562;BME280;68963;52.138;5.446;2023-07-20T08:53:12;101654.06;;;18.63;61.49
78562;BME280;68963;52.138;5.446;2023-07-20T08:55:40;101647.84;;;18.75;59.55
78562;BME280;68963;52.138;5.446;2023-07-20T08:58:12;101654.28;;;18.86;60.01
78562;BME280;68963;52.138;5.446;2023-07-20T09:00:39;101655.09;;;18.87;60.18
78562;BME280;68963;52.138;5.446;2023-07-20T09:03:10;101655.28;;;19.03;60.71
78562;BME280;68963;52.138;5.446;2023-07-20T09:05:37;101652.97;;;19.25;61.08
78562;BME280;68963;52.138;5.446;2023-07-20T09:08:07;101653.16;;;19.42;60.59
78562;BME280;68963;52.138;5.446;2023-07-20T09:10:33;101658.03;;;19.34;60.09
78562;BME280;68963;52.138;5.446;2023-07-20T09:13:00;101655.50;;;19.20;60.66
78562;BME280;68963;52.138;5.446;2023-07-20T09:15:29;101655.97;;;19.17;60.72
78562;BME280;68963;52.138;5.446;2023-07-20T09:18:01;101651.66;;;19.46;60.62
78562;BME280;68963;52.138;5.446;2023-07-20T09:20:31;101640.75;;;19.66;58.07
78562;BME280;68963;52.138;5.446;2023-07-20T09:22:58;101651.75;;;19.70;57.07
78562;BME280;68963;52.138;5.446;2023-07-20T09:25:26;101641.78;;;19.77;57.27
78562;BME280;68963;52.138;5.446;2023-07-20T09:27:56;101646.31;;;19.76;56.59
78562;BME280;68963;52.138;5.446;2023-07-20T09:30:25;101642.38;;;19.67;57.23
78562;BME280;68963;52.138;5.446;2023-07-20T09:32:58;101647.13;;;19.65;56.60
78562;BME280;68963;52.138;5.446;2023-07-20T09:35:25;101650.94;;;19.69;57.77
78562;BME280;68963;52.138;5.446;2023-07-20T09:38:01;101652.28;;;19.48;55.96
78562;BME280;68963;52.138;5.446;2023-07-20T09:40:37;101644.50;;;19.28;56.86
78562;BME280;68963;52.138;5.446;2023-07-20T09:43:09;101648.91;;;19.23;53.94
78562;BME280;68963;52.138;5.446;2023-07-20T09:45:42;101642.75;;;19.22;56.01
78562;BME280;68963;52.138;5.446;2023-07-20T09:48:11;101644.66;;;19.34;54.13
78562;BME280;68963;52.138;5.446;2023-07-20T09:50:43;101656.53;;;19.38;50.35
78562;BME280;68963;52.138;5.446;2023-07-20T09:53:17;101643.25;;;19.31;53.32
78562;BME280;68963;52.138;5.446;2023-07-20T09:55:48;101637.25;;;19.17;52.28
78562;BME280;68963;52.138;5.446;2023-07-20T09:58:15;101635.41;;;19.18;53.36
78562;BME280;68963;52.138;5.446;2023-07-20T10:00:42;101634.28;;;19.55;55.37
78562;BME280;68963;52.138;5.446;2023-07-20T10:03:19;101641.78;;;19.77;51.88
78562;BME280;68963;52.138;5.446;2023-07-20T10:05:56;101634.44;;;20.14;53.66
78562;BME280;68963;52.138;5.446;2023-07-20T10:08:29;101639.28;;;20.17;52.63
78562;BME280;68963;52.138;5.446;2023-07-20T10:10:59;101635.13;;;20.33;50.85
78562;BME280;68963;52.138;5.446;2023-07-20T10:13:29;101642.19;;;20.39;48.36
78562;BME280;68963;52.138;5.446;2023-07-20T10:16:26;101636.41;;;20.19;49.74
78562;BME280;68963;52.138;5.446;2023-07-20T10:19:05;101635.53;;;19.83;49.19
78562;BME280;68963;52.138;5.446;2023-07-20T10:21:48;101632.28;;;19.81;51.63
78562;BME280;68963;52.138;5.446;2023-07-20T10:24:25;101632.66;;;20.20;51.62
78562;BME280;68963;52.138;5.446;2023-07-20T10:26:53;101629.22;;;20.55;50.18
78562;BME280;68963;52.138;5.446;2023-07-20T10:29:21;101634.25;;;20.91;50.93
78562;BME280;68963;52.138;5.446;2023-07-20T10:31:49;101622.88;;;20.84;49.84
78562;BME280;68963;52.138;5.446;2023-07-20T10:34:18;101625.13;;;21.04;45.58
78562;BME280;68963;52.138;5.446;2023-07-20T10:36:46;101625.22;;;21.09;47.22
78562;BME280;68963;52.138;5.446;2023-07-20T10:39:22;101626.41;;;21.30;48.72
78562;BME280;68963;52.138;5.446;2023-07-20T10:41:50;101619.34;;;21.36;49.01
78562;BME280;68963;52.138;5.446;2023-07-20T10:44:20;101622.59;;;21.71;46.69
78562;BME280;68963;52.138;5.446;2023-07-20T10:46:47;101613.97;;;21.53;47.07
78562;BME280;68963;52.138;5.446;2023-07-20T10:49:14;101614.63;;;21.31;47.66
78562;BME280;68963;52.138;5.446;2023-07-20T10:51:46;101617.28;;;21.14;47.94
78562;BME280;68963;52.138;5.446;2023-07-20T10:54:33;101610.78;;;21.10;48.43
78562;BME280;68963;52.138;5.446;2023-07-20T10:57:23;101609.03;;;21.44;47.38
78562;BME280;68963;52.138;5.446;2023-07-20T11:00:06;101613.50;;;22.06;45.82
78562;BME280;68963;52.138;5.446;2023-07-20T11:02:49;101610.19;;;22.55;48.26
78562;BME280;68963;52.138;5.446;2023-07-20T11:08:11;101609.63;;;23.19;43.00
78562;BME280;68963;52.138;5.446;2023-07-20T11:10:39;101603.69;;;23.17;41.16
78562;BME280;68963;52.138;5.446;2023-07-20T11:13:21;101606.69;;;23.20;43.25
78562;BME280;68963;52.138;5.446;2023-07-20T11:18:28;101607.25;;;22.56;41.65
78562;BME280;68963;52.138;5.446;2023-07-20T11:20:55;101607.81;;;22.03;45.59
78562;BME280;68963;52.138;5.446;2023-07-20T11:23:22;101603.38;;;21.91;45.39
78562;BME280;68963;52.138;5.446;2023-07-20T11:25:49;101602.53;;;22.25;44.03
78562;BME280;68963;52.138;5.446;2023-07-20T11:28:16;101600.22;;;22.72;42.96
78562;BME280;68963;52.138;5.446;2023-07-20T11:30:43;101594.28;;;23.19;42.34
78562;BME280;68963;52.138;5.446;2023-07-20T11:33:10;101594.09;;;23.26;44.52
78562;BME280;68963;52.138;5.446;2023-07-20T11:35:45;101589.91;;;23.67;43.09
78562;BME280;68963;52.138;5.446;2023-07-20T11:38:14;101576.25;;;23.74;43.17
78562;BME280;68963;52.138;5.446;2023-07-20T11:40:43;101585.44;;;23.78;40.96
78562;BME280;68963;52.138;5.446;2023-07-20T11:43:12;101575.53;;;23.89;41.46
78562;BME280;68963;52.138;5.446;2023-07-20T11:45:42;101578.16;;;24.16;42.39
78562;BME280;68963;52.138;5.446;2023-07-20T11:48:14;101583.91;;;23.92;39.83
78562;BME280;68963;52.138;5.446;2023-07-20T11:50:41;101576.47;;;23.67;39.83
78562;BME280;68963;52.138;5.446;2023-07-20T11:53:08;101574.28;;;23.64;37.88
78562;BME280;68963;52.138;5.446;2023-07-20T11:55:35;101573.91;;;23.50;38.29
78562;BME280;68963;52.138;5.446;2023-07-20T11:58:07;101575.28;;;23.53;36.33
78562;BME280;68963;52.138;5.446;2023-07-20T12:00:35;101571.53;;;23.59;36.97
78562;BME280;68963;52.138;5.446;2023-07-20T12:03:05;101576.81;;;23.49;37.69
78562;BME280;68963;52.138;5.446;2023-07-20T12:05:34;101570.41;;;23.23;37.48
78562;BME280;68963;52.138;5.446;2023-07-20T12:08:21;101566.28;;;23.69;38.14
78562;BME280;68963;52.138;5.446;2023-07-20T12:10:48;101568.06;;;23.96;36.72
78562;BME280;68963;52.138;5.446;2023-07-20T12:13:15;101574.22;;;23.91;36.90
78562;BME280;68963;52.138;5.446;2023-07-20T12:15:43;101566.84;;;24.19;38.87
78562;BME280;68963;52.138;5.446;2023-07-20T12:18:10;101564.38;;;24.07;35.43
78562;BME280;68963;52.138;5.446;2023-07-20T12:20:37;101570.22;;;23.61;37.86
78562;BME280;68963;52.138;5.446;2023-07-20T12:23:09;101557.06;;;23.65;36.24
78562;BME280;68963;52.138;5.446;2023-07-20T12:25:40;101559.47;;;23.61;37.89
78562;BME280;68963;52.138;5.446;2023-07-20T12:28:09;101569.59;;;23.49;37.14
78562;BME280;68963;52.138;5.446;2023-07-20T12:30:39;101573.44;;;23.04;37.01
78562;BME280;68963;52.138;5.446;2023-07-20T12:33:07;101564.47;;;22.50;38.44
78562;BME280;68963;52.138;5.446;2023-07-20T12:35:34;101560.72;;;22.29;39.25
78562;BME280;68963;52.138;5.446;2023-07-20T12:38:00;101568.94;;;22.22;38.73
78562;BME280;68963;52.138;5.446;2023-07-20T12:40:27;101560.97;;;22.10;39.43
78562;BME280;68963;52.138;5.446;2023-07-20T12:42:54;101559.09;;;22.11;40.67
78562;BME280;68963;52.138;5.446;2023-07-20T12:45:21;101557.34;;;22.38;42.28
78562;BME280;68963;52.138;5.446;2023-07-20T12:47:48;101549.31;;;23.36;41.59
78562;BME280;68963;52.138;5.446;2023-07-20T12:50:15;101549.88;;;24.18;40.50
78562;BME280;68963;52.138;5.446;2023-07-20T12:52:42;101547.47;;;24.17;39.22
78562;BME280;68963;52.138;5.446;2023-07-20T12:55:11;101553.00;;;23.62;40.75
78562;BME280;68963;52.138;5.446;2023-07-20T12:57:40;101560.97;;;23.47;41.13
78562;BME280;68963;52.138;5.446;2023-07-20T13:00:10;101560.63;;;23.11;39.77
78562;BME280;68963;52.138;5.446;2023-07-20T13:02:39;101551.81;;;23.16;42.36
78562;BME280;68963;52.138;5.446;2023-07-20T13:05:09;101551.97;;;23.31;41.57
78562;BME280;68963;52.138;5.446;2023-07-20T13:07:38;101551.69;;;23.33;42.92
78562;BME280;68963;52.138;5.446;2023-07-20T13:10:09;101546.97;;;23.18;41.69
78562;BME280;68963;52.138;5.446;2023-07-20T13:12:37;101541.00;;;23.11;41.20
78562;BME280;68963;52.138;5.446;2023-07-20T13:15:06;101549.03;;;23.06;41.22